Time;durP1;ratioP1;P1;durP2;ratioP2;P2;SDS_P1;SDS_P2;PMS_P1;PMS_P2;Temp;Humidity;BMP_temperature;BMP_pressure;BME280_temperature;BME280_humidity;BME280_pressure;Samples;Min_cycle;Max_cycle;Signal;HPM_P1;HPM_P2
2023/03/10 00:00:14;;;;;;;0.35;0.35;;;;;;;9.56;61.42;98958.63;5033190;28;20041;-63
2023/03/10 00:02:45;;;;;;;0.30;0.30;;;;;;;9.72;61.05;98962.13;5033843;28;20018;-63
2023/03/10 00:05:11;;;;;;;0.30;0.30;;;;;;;9.97;60.42;98961.34;5031125;28;20052;-63
2023/03/10 00:07:36;;;;;;;0.30;0.30;;;;;;;9.52;62.37;98954.84;5032795;28;20037;-63
2023/03/10 00:10:03;;;;;;;0.30;0.30;;;;;;;9.63;61.42;98945.75;5033615;28;20029;-63
2023/03/10 00:12:28;;;;;;;0.30;0.30;;;;;;;9.18;62.61;98940.25;5033179;28;20412;-64
2023/03/10 00:14:55;;;;;;;0.35;0.30;;;;;;;9.32;62.02;98948.59;5032683;28;20123;-63
2023/03/10 00:17:20;;;;;;;0.30;0.30;;;;;;;9.54;60.94;98942.00;5030815;28;20029;-63
2023/03/10 00:19:45;;;;;;;0.35;0.35;;;;;;;9.61;61.37;98939.84;5032543;28;20516;-64
2023/03/10 00:22:11;;;;;;;0.32;0.32;;;;;;;9.98;60.13;98942.34;5032658;28;20524;-64
2023/03/10 00:24:36;;;;;;;0.30;0.30;;;;;;;9.74;60.77;98930.50;5032721;28;20061;-63
2023/03/10 00:27:01;;;;;;;0.30;0.30;;;;;;;9.21;62.44;98933.56;5027801;28;20109;-64
2023/03/10 00:29:27;;;;;;;0.40;0.40;;;;;;;9.05;62.69;98930.03;5033192;28;20112;-63
2023/03/10 00:31:52;;;;;;;0.40;0.40;;;;;;;9.49;62.01;98933.91;5032497;28;20572;-65
2023/03/10 00:34:17;;;;;;;0.40;0.40;;;;;;;9.48;61.79;98934.19;5018270;28;20092;-63
2023/03/10 00:36:43;;;;;;;0.22;0.22;;;;;;;9.61;62.13;98936.38;5029485;28;20469;-64
2023/03/10 00:39:09;;;;;;;0.20;0.20;;;;;;;9.83;60.99;98934.25;5018392;28;20117;-63
2023/03/10 00:41:37;;;;;;;0.40;0.40;;;;;;;9.89;60.85;98924.31;5033371;28;20033;-64
2023/03/10 00:44:04;;;;;;;0.20;0.20;;;;;;;9.59;61.02;98928.56;5019843;28;20161;-64
2023/03/10 00:46:32;;;;;;;0.28;0.28;;;;;;;9.65;61.48;98919.47;5029245;28;20030;-63
2023/03/10 00:48:57;;;;;;;0.30;0.30;;;;;;;10.25;59.86;98917.94;5016727;28;20033;-63
2023/03/10 00:51:23;;;;;;;0.30;0.30;;;;;;;10.06;59.92;98919.53;5032700;28;20030;-63
2023/03/10 00:53:49;;;;;;;0.40;0.40;;;;;;;9.65;61.18;98918.69;5021512;28;20522;-65
2023/03/10 00:56:23;;;;;;;0.20;0.20;;;;;;;9.93;60.47;98925.41;5016659;28;20076;-64
2023/03/10 00:58:54;;;;;;;0.30;0.30;;;;;;;9.89;61.06;98922.44;5029484;28;20038;-62
2023/03/10 01:01:29;;;;;;;0.38;0.38;;;;;;;10.13;60.17;98918.19;5026116;28;20489;-65
2023/03/10 01:03:57;;;;;;;0.30;0.30;;;;;;;10.73;58.23;98916.50;5020762;28;20038;-64
2023/03/10 01:06:23;;;;;;;0.30;0.30;;;;;;;9.79;60.90;98914.38;5028059;28;20046;-62
2023/03/10 01:08:49;;;;;;;0.40;0.40;;;;;;;9.69;60.22;98900.97;5014959;28;20033;-63
2023/03/10 01:11:16;;;;;;;0.22;0.22;;;;;;;10.61;58.22;98904.16;5008558;28;20044;-62
2023/03/10 01:13:42;;;;;;;0.20;0.20;;;;;;;10.77;57.51;98901.47;5022260;28;20037;-62
2023/03/10 01:16:07;;;;;;;0.30;0.30;;;;;;;10.46;58.71;98898.03;5028103;28;20030;-63
2023/03/10 01:18:33;;;;;;;0.30;0.30;;;;;;;10.26;58.92;98895.41;5015876;28;20034;-63
2023/03/10 01:20:58;;;;;;;0.30;0.30;;;;;;;10.27;59.36;98891.63;5010449;28;20413;-63
2023/03/10 01:23:24;;;;;;;0.38;0.38;;;;;;;9.81;60.10;98890.78;5025854;28;20022;-64
2023/03/10 01:25:50;;;;;;;0.25;0.25;;;;;;;9.92;60.32;98887.06;5032214;28;20087;-63
2023/03/10 01:28:16;;;;;;;0.28;0.28;;;;;;;9.47;62.37;98892.38;5032156;28;20042;-65
2023/03/10 01:30:43;;;;;;;0.32;0.32;;;;;;;9.67;61.12;98895.88;5015474;28;20046;-63
2023/03/10 01:33:10;;;;;;;0.20;0.20;;;;;;;9.27;62.56;98890.44;5026342;28;20042;-66
2023/03/10 01:35:36;;;;;;;0.40;0.40;;;;;;;9.65;61.68;98881.16;5021820;28;20037;-64
2023/03/10 01:38:02;;;;;;;0.40;0.40;;;;;;;9.99;60.39;98881.41;5019103;28;20036;-63
2023/03/10 01:40:28;;;;;;;0.40;0.40;;;;;;;9.96;60.63;98873.91;5028243;28;20436;-64
2023/03/10 01:43:18;;;;;;;0.30;0.30;;;;;;;10.18;60.14;98874.47;5015319;28;20030;-64
2023/03/10 01:45:43;;;;;;;0.40;0.40;;;;;;;10.04;59.38;98868.00;5021218;28;20038;-63
2023/03/10 01:48:08;;;;;;;0.40;0.40;;;;;;;9.87;60.41;98872.84;5025465;28;20412;-63
2023/03/10 01:50:34;;;;;;;0.38;0.38;;;;;;;10.27;59.39;98878.19;5015819;28;20029;-62
2023/03/10 01:53:00;;;;;;;0.30;0.30;;;;;;;9.92;60.44;98883.56;5012165;28;20026;-63
2023/03/10 01:55:32;;;;;;;0.30;0.30;;;;;;;9.93;60.51;98879.78;5023931;28;20560;-64
2023/03/10 01:57:58;;;;;;;0.38;0.38;;;;;;;10.23;58.92;98880.63;5028200;28;20044;-63
2023/03/10 02:00:25;;;;;;;0.30;0.30;;;;;;;9.87;60.36;98886.25;5015464;28;20064;-66
2023/03/10 02:03:12;;;;;;;0.40;0.40;;;;;;;10.35;59.00;98878.47;5027936;28;20018;-65
2023/03/10 02:05:48;;;;;;;0.28;0.28;;;;;;;9.56;61.44;98869.31;5021585;28;20539;-64
2023/03/10 02:08:15;;;;;;;0.32;0.32;;;;;;;9.48;61.37;98859.94;5017569;28;20054;-63
2023/03/10 02:10:41;;;;;;;0.40;0.40;;;;;;;9.70;60.29;98865.03;5027114;28;20045;-64
2023/03/10 02:13:06;;;;;;;0.20;0.20;;;;;;;10.14;59.41;98871.50;5016704;28;20041;-65
2023/03/10 02:15:32;;;;;;;0.30;0.30;;;;;;;9.93;60.25;98866.38;5026982;28;20025;-63
2023/03/10 02:17:59;;;;;;;0.40;0.40;;;;;;;10.21;59.08;98863.97;5019129;28;20030;-64
2023/03/10 02:20:32;;;;;;;0.30;0.30;;;;;;;10.05;59.83;98858.84;5027486;28;20037;-64
2023/03/10 02:22:57;;;;;;;0.30;0.30;;;;;;;10.01;59.18;98866.66;5020199;28;20508;-65
2023/03/10 02:25:50;;;;;;;0.30;0.30;;;;;;;10.19;59.18;98868.81;5012692;28;20033;-63
2023/03/10 02:28:16;;;;;;;0.43;0.43;;;;;;;10.05;59.42;98867.72;5030832;28;20038;-64
2023/03/10 02:30:49;;;;;;;0.45;0.45;;;;;;;10.17;59.21;98864.78;5013966;28;20529;-65
2023/03/10 02:33:20;;;;;;;0.40;0.40;;;;;;;10.05;59.56;98867.72;5024470;28;20037;-64
2023/03/10 02:35:46;;;;;;;0.30;0.30;;;;;;;10.19;59.65;98866.13;5016011;28;20034;-64
2023/03/10 02:38:12;;;;;;;0.40;0.40;;;;;;;10.12;59.67;98867.50;5025582;28;20028;-62
2023/03/10 02:40:46;;;;;;;0.30;0.30;;;;;;;9.16;62.44;98853.97;5014367;28;20129;-65
2023/03/10 02:43:19;;;;;;;0.20;0.20;;;;;;;8.88;63.38;98852.53;5024859;28;20177;-63
2023/03/10 02:45:46;;;;;;;0.30;0.30;;;;;;;9.47;60.85;98858.31;5021087;28;20037;-63
2023/03/10 02:48:17;;;;;;;0.32;0.32;;;;;;;9.35;61.51;98867.69;5016599;28;20069;-63
2023/03/10 02:50:45;;;;;;;0.30;0.30;;;;;;;9.93;60.09;98859.13;5029196;28;20033;-63
2023/03/10 02:53:16;;;;;;;0.50;0.50;;;;;;;10.14;59.56;98859.97;5030374;28;20040;-63
2023/03/10 02:55:42;;;;;;;0.20;0.20;;;;;;;10.00;59.50;98851.63;5027267;28;20033;-67
2023/03/10 02:58:08;;;;;;;0.38;0.38;;;;;;;10.04;59.34;98858.06;5015562;28;20104;-68
2023/03/10 03:00:37;;;;;;;0.30;0.30;;;;;;;9.66;61.04;98854.06;5027240;28;20034;-68
2023/03/10 03:03:02;;;;;;;0.30;0.30;;;;;;;9.26;61.96;98845.94;5013489;28;20109;-67
2023/03/10 03:05:28;;;;;;;0.30;0.30;;;;;;;9.12;62.97;98844.06;5001030;28;20133;-68
2023/03/10 03:07:53;;;;;;;0.28;0.28;;;;;;;9.05;62.51;98844.28;5018825;28;20506;-67
2023/03/10 03:10:19;;;;;;;0.32;0.32;;;;;;;9.51;61.85;98848.66;5010542;28;20034;-68
2023/03/10 03:12:44;;;;;;;0.30;0.30;;;;;;;9.41;61.60;98861.25;5026690;28;20034;-68
2023/03/10 03:15:10;;;;;;;0.30;0.30;;;;;;;9.85;60.04;98858.91;5014349;28;20029;-68
2023/03/10 03:17:35;;;;;;;0.35;0.35;;;;;;;9.54;61.20;98850.81;5020038;28;20028;-67
2023/03/10 03:20:00;;;;;;;0.50;0.50;;;;;;;8.76;63.24;98845.81;5029961;28;20471;-69
2023/03/10 03:22:26;;;;;;;0.30;0.30;;;;;;;9.03;62.86;98851.78;5018933;28;20531;-69
2023/03/10 03:24:51;;;;;;;0.40;0.40;;;;;;;8.80;64.13;98850.34;5030084;28;20167;-68
2023/03/10 03:27:16;;;;;;;0.30;0.30;;;;;;;9.12;62.75;98847.53;5030293;28;20041;-67
2023/03/10 03:29:42;;;;;;;0.50;0.50;;;;;;;9.04;63.10;98844.56;5020578;28;20038;-68
2023/03/10 03:32:07;;;;;;;0.40;0.40;;;;;;;9.38;62.46;98851.06;5024437;28;20117;-68
2023/03/10 03:34:32;;;;;;;0.30;0.30;;;;;;;9.13;63.07;98848.34;5017977;28;20038;-67
2023/03/10 03:36:58;;;;;;;0.20;0.20;;;;;;;9.45;61.87;98847.03;5030587;28;20091;-68
2023/03/10 03:39:23;;;;;;;0.32;0.32;;;;;;;8.79;63.79;98843.41;5003838;28;20120;-68
2023/03/10 03:41:52;;;;;;;0.32;0.32;;;;;;;8.73;63.62;98838.28;5023227;28;20021;-68
2023/03/10 03:44:17;;;;;;;0.30;0.30;;;;;;;9.03;62.59;98842.94;5029375;28;20033;-68
2023/03/10 03:46:43;;;;;;;0.25;0.25;;;;;;;9.43;61.79;98846.53;5026300;28;20030;-68
2023/03/10 03:49:09;;;;;;;0.40;0.40;;;;;;;8.90;62.84;98846.94;5019908;28;20041;-68
2023/03/10 03:51:35;;;;;;;0.40;0.40;;;;;;;8.81;63.51;98843.13;5033745;28;20068;-68
2023/03/10 03:54:01;;;;;;;0.30;0.30;;;;;;;8.83;63.34;98846.34;5021399;28;20137;-69
2023/03/10 03:56:26;;;;;;;0.40;0.40;;;;;;;9.54;61.45;98850.00;5017810;28;20113;-69
2023/03/10 03:58:51;;;;;;;0.32;0.32;;;;;;;9.23;61.92;98848.34;5030508;28;20099;-68
2023/03/10 04:01:17;;;;;;;0.40;0.40;;;;;;;9.51;60.96;98834.47;5020402;28;20041;-69
2023/03/10 04:03:42;;;;;;;0.50;0.50;;;;;;;9.08;62.67;98840.28;5023677;28;20048;-68
2023/03/10 04:06:08;;;;;;;0.40;0.40;;;;;;;8.68;63.24;98832.94;5027159;28;20319;-68
2023/03/10 04:08:33;;;;;;;0.25;0.25;;;;;;;9.31;62.08;98831.75;5033263;28;20030;-68
2023/03/10 04:10:59;;;;;;;0.35;0.35;;;;;;;8.80;63.32;98838.88;5017883;28;20132;-67
2023/03/10 04:13:24;;;;;;;0.30;0.30;;;;;;;9.13;62.16;98845.66;5033475;28;20045;-67
2023/03/10 04:15:57;;;;;;;0.40;0.40;;;;;;;8.88;62.62;98850.94;5022355;28;20113;-67
2023/03/10 04:18:23;;;;;;;0.30;0.30;;;;;;;9.51;60.92;98854.03;5029064;28;20125;-68
2023/03/10 04:20:48;;;;;;;0.30;0.30;;;;;;;8.71;62.89;98851.13;5030388;28;20033;-68
2023/03/10 04:23:14;;;;;;;0.20;0.20;;;;;;;8.77;62.89;98866.16;5019309;28;20026;-67
2023/03/10 04:25:42;;;;;;;0.40;0.40;;;;;;;9.00;62.04;98860.38;5013409;28;20560;-68
2023/03/10 04:28:07;;;;;;;0.20;0.20;;;;;;;9.31;61.85;98842.47;5032553;28;20554;-69
2023/03/10 04:30:33;;;;;;;0.30;0.30;;;;;;;8.77;62.97;98844.72;5016603;28;20038;-70
2023/03/10 04:32:59;;;;;;;0.35;0.35;;;;;;;9.18;62.09;98835.75;5028960;28;20018;-68
2023/03/10 04:35:24;;;;;;;0.22;0.22;;;;;;;9.22;61.48;98839.50;5021524;28;20469;-68
2023/03/10 04:37:50;;;;;;;0.40;0.40;;;;;;;9.01;62.91;98837.03;5022034;28;20030;-69
2023/03/10 04:40:15;;;;;;;0.40;0.40;;;;;;;8.34;65.05;98848.53;5027766;28;20025;-68
2023/03/10 04:42:41;;;;;;;0.40;0.40;;;;;;;8.40;65.01;98841.34;5016480;28;20092;-68
2023/03/10 04:45:07;;;;;;;0.30;0.30;;;;;;;9.32;61.68;98844.06;5029852;28;20034;-69
2023/03/10 04:47:33;;;;;;;0.30;0.30;;;;;;;8.71;63.12;98841.22;5033446;28;20051;-68
2023/03/10 04:49:58;;;;;;;0.40;0.40;;;;;;;8.78;63.06;98839.13;5032696;28;20034;-68
2023/03/10 04:52:24;;;;;;;0.30;0.30;;;;;;;9.04;62.36;98844.56;5016882;28;20041;-67
2023/03/10 04:54:49;;;;;;;0.30;0.30;;;;;;;9.30;61.29;98841.66;5028582;28;20112;-67
2023/03/10 04:57:15;;;;;;;0.30;0.30;;;;;;;9.19;61.91;98852.63;5008353;28;20095;-68
2023/03/10 04:59:40;;;;;;;0.25;0.25;;;;;;;9.23;61.75;98854.53;5023169;28;20029;-68
2023/03/10 05:02:06;;;;;;;0.40;0.40;;;;;;;8.70;62.20;98836.16;5031466;28;20515;-68
2023/03/10 05:04:31;;;;;;;0.50;0.50;;;;;;;9.12;62.49;98836.81;5015732;28;20384;-67
2023/03/10 05:06:57;;;;;;;0.50;0.50;;;;;;;8.86;62.81;98835.13;5028106;28;20129;-68
2023/03/10 05:09:22;;;;;;;0.32;0.32;;;;;;;8.81;63.28;98835.09;5002085;28;20072;-69
2023/03/10 05:11:47;;;;;;;0.50;0.50;;;;;;;8.74;63.92;98837.22;5021116;28;20129;-67
2023/03/10 05:14:13;;;;;;;0.43;0.43;;;;;;;9.26;61.07;98837.91;5026994;28;20038;-68
2023/03/10 05:16:39;;;;;;;0.40;0.40;;;;;;;9.02;62.23;98833.31;5026541;28;20050;-67
2023/03/10 05:19:04;;;;;;;0.25;0.25;;;;;;;9.52;60.76;98841.44;5012414;28;20433;-68
2023/03/10 05:21:30;;;;;;;0.30;0.30;;;;;;;9.67;60.83;98850.28;5020991;28;20493;-68
2023/03/10 05:23:55;;;;;;;0.30;0.30;;;;;;;9.58;60.97;98870.66;5030495;28;20068;-68
2023/03/10 05:26:20;;;;;;;0.40;0.40;;;;;;;8.96;62.49;98861.97;5022038;28;20029;-69
2023/03/10 05:28:46;;;;;;;0.40;0.40;;;;;;;9.62;60.38;98844.94;5029675;28;20068;-69
2023/03/10 05:31:15;;;;;;;0.40;0.40;;;;;;;9.19;61.16;98829.34;5017197;28;20037;-67
2023/03/10 05:33:41;;;;;;;0.30;0.30;;;;;;;9.29;61.49;98821.31;5019280;28;20040;-67
2023/03/10 05:36:09;;;;;;;0.30;0.30;;;;;;;9.08;62.60;98830.34;5032122;28;20037;-69
2023/03/10 05:38:34;;;;;;;0.40;0.40;;;;;;;9.30;61.64;98825.59;5026639;28;20029;-68
2023/03/10 05:41:00;;;;;;;0.30;0.30;;;;;;;8.77;62.14;98829.47;5016216;28;20512;-68
2023/03/10 05:43:26;;;;;;;0.40;0.40;;;;;;;8.82;62.91;98829.47;5012609;28;20045;-68
2023/03/10 05:45:58;;;;;;;0.40;0.40;;;;;;;9.14;62.06;98831.19;5017295;28;20038;-68
2023/03/10 05:48:24;;;;;;;0.57;0.57;;;;;;;9.26;61.27;98827.19;5012994;28;20049;-68
2023/03/10 05:51:00;;;;;;;0.45;0.45;;;;;;;8.72;63.62;98824.13;5021778;28;20030;-68
2023/03/10 05:53:27;;;;;;;0.40;0.40;;;;;;;9.07;62.73;98831.44;5020534;28;20026;-67
2023/03/10 05:55:53;;;;;;;0.32;0.32;;;;;;;9.04;63.02;98831.97;5019548;28;20077;-68
2023/03/10 05:58:19;;;;;;;0.45;0.45;;;;;;;8.75;63.56;98846.84;5026815;28;20045;-68
2023/03/10 06:00:44;;;;;;;0.40;0.40;;;;;;;8.82;63.09;98858.16;5029008;28;20576;-69
2023/03/10 06:03:10;;;;;;;0.30;0.30;;;;;;;9.33;60.93;98851.88;5017146;28;20045;-68
2023/03/10 06:05:35;;;;;;;0.28;0.28;;;;;;;9.58;60.87;98838.50;5031937;28;20056;-67
2023/03/10 06:08:04;;;;;;;0.40;0.40;;;;;;;9.10;61.73;98833.59;5017848;28;20050;-68
2023/03/10 06:10:29;;;;;;;0.40;0.40;;;;;;;9.62;60.10;98836.06;5026677;28;20103;-68
2023/03/10 06:12:55;;;;;;;0.30;0.30;;;;;;;9.20;61.50;98836.28;5003467;28;20124;-67
2023/03/10 06:15:21;;;;;;;0.30;0.30;;;;;;;9.22;61.68;98833.38;5021674;28;20126;-70
2023/03/10 06:17:47;;;;;;;0.25;0.25;;;;;;;9.64;60.36;98832.06;5022401;28;20080;-68
2023/03/10 06:20:13;;;;;;;0.50;0.50;;;;;;;9.24;61.45;98828.50;5029140;28;20155;-67
2023/03/10 06:22:38;;;;;;;0.30;0.30;;;;;;;9.65;60.10;98820.25;5023366;28;20041;-69
2023/03/10 06:25:04;;;;;;;0.30;0.30;;;;;;;9.38;60.70;98818.91;5025953;28;20449;-69
2023/03/10 06:27:30;;;;;;;0.50;0.50;;;;;;;9.46;61.01;98831.78;5010141;28;20057;-69
2023/03/10 06:29:56;;;;;;;0.30;0.30;;;;;;;9.16;62.59;98834.41;5029478;28;20029;-67
2023/03/10 06:32:21;;;;;;;0.30;0.30;;;;;;;8.90;63.62;98838.91;5028095;28;20068;-68
2023/03/10 06:34:47;;;;;;;0.40;0.40;;;;;;;9.28;61.37;98840.31;5025877;28;20048;-67
2023/03/10 06:37:12;;;;;;;0.40;0.40;;;;;;;8.73;64.10;98840.97;5021968;28;20041;-67
2023/03/10 06:39:38;;;;;;;0.50;0.50;;;;;;;9.49;60.75;98845.44;5008144;28;20067;-68
2023/03/10 06:42:04;;;;;;;0.30;0.30;;;;;;;9.98;59.82;98844.94;5024870;28;20026;-67
2023/03/10 06:44:30;;;;;;;0.28;0.28;;;;;;;9.75;60.36;98838.22;5010297;28;20459;-68
2023/03/10 06:46:55;;;;;;;0.20;0.20;;;;;;;9.41;60.29;98835.28;5030368;28;20040;-67
2023/03/10 06:49:20;;;;;;;0.25;0.25;;;;;;;9.68;61.00;98843.06;5023319;28;20104;-68
2023/03/10 06:51:46;;;;;;;0.30;0.30;;;;;;;9.25;61.48;98840.88;5021078;28;20037;-69
2023/03/10 06:54:11;;;;;;;0.45;0.45;;;;;;;9.85;60.13;98840.13;5011120;28;20037;-68
2023/03/10 06:56:36;;;;;;;0.40;0.40;;;;;;;9.61;60.44;98839.84;5030506;28;20116;-67
2023/03/10 06:59:02;;;;;;;0.35;0.35;;;;;;;9.79;59.62;98854.59;5030007;28;20124;-68
2023/03/10 07:01:30;;;;;;;0.40;0.40;;;;;;;9.61;60.86;98855.94;5029840;28;20037;-67
2023/03/10 07:03:56;;;;;;;0.40;0.40;;;;;;;9.61;61.14;98861.28;5030036;28;20370;-67
2023/03/10 07:06:23;;;;;;;0.40;0.40;;;;;;;9.85;59.93;98858.91;5029197;28;20136;-67
2023/03/10 07:08:49;;;;;;;0.20;0.20;;;;;;;9.59;60.64;98860.75;5025716;28;20271;-67
2023/03/10 07:11:14;;;;;;;0.32;0.32;;;;;;;9.47;61.25;98866.34;5027885;28;20436;-68
2023/03/10 07:13:40;;;;;;;0.40;0.40;;;;;;;9.85;60.69;98870.41;5026426;28;20037;-67
2023/03/10 07:16:06;;;;;;;0.28;0.28;;;;;;;9.27;62.57;98866.34;5026408;28;20064;-68
2023/03/10 07:18:31;;;;;;;0.30;0.30;;;;;;;9.69;60.78;98861.56;5027675;28;20034;-67
2023/03/10 07:20:57;;;;;;;0.40;0.40;;;;;;;9.56;60.50;98854.03;5026280;28;20022;-66
2023/03/10 07:23:24;;;;;;;0.28;0.28;;;;;;;10.07;59.84;98854.03;5029255;28;20152;-68
2023/03/10 07:25:55;;;;;;;0.40;0.40;;;;;;;9.23;62.11;98862.56;5024946;28;20041;-67
2023/03/10 07:28:20;;;;;;;;;;;;;;;10.33;59.66;98864.50;5028656;28;20041;-68
2023/03/10 07:30:47;;;;;;;0.30;0.30;;;;;;;9.57;60.43;98863.69;5026660;28;19928;-68
2023/03/10 07:33:12;;;;;;;0.47;0.47;;;;;;;9.62;60.35;98862.91;5027838;28;20050;-67
2023/03/10 07:35:38;;;;;;;0.30;0.30;;;;;;;9.93;60.20;98869.88;5027935;28;20433;-67
2023/03/10 07:38:04;;;;;;;0.40;0.40;;;;;;;9.33;60.75;98865.28;5011285;28;20053;-67
2023/03/10 07:40:29;;;;;;;0.30;0.30;;;;;;;9.29;62.42;98869.56;5029205;28;20033;-67
2023/03/10 07:42:54;;;;;;;0.20;0.20;;;;;;;9.75;61.03;98875.75;5029085;28;20116;-67
2023/03/10 07:45:24;;;;;;;0.52;0.52;;;;;;;9.10;62.69;98875.66;5028844;28;20524;-68
2023/03/10 07:47:51;;;;;;;0.30;0.30;;;;;;;9.73;61.59;98877.91;5029151;28;20033;-68
2023/03/10 07:50:16;;;;;;;0.40;0.40;;;;;;;9.60;61.42;98873.06;5024764;28;20049;-69
2023/03/10 07:52:42;;;;;;;0.40;0.40;;;;;;;9.82;60.34;98875.50;4992953;28;20041;-67
2023/03/10 07:55:08;;;;;;;0.30;0.30;;;;;;;9.81;61.37;98871.22;5010483;28;20049;-66
2023/03/10 07:57:33;;;;;;;0.40;0.40;;;;;;;9.41;61.90;98886.22;5010458;28;20180;-67
2023/03/10 07:59:59;;;;;;;0.30;0.30;;;;;;;9.55;61.46;98883.81;5010378;28;20033;-68
2023/03/10 08:02:24;;;;;;;0.40;0.40;;;;;;;10.08;60.36;98882.50;5010809;28;20033;-68
2023/03/10 08:04:51;;;;;;;0.20;0.20;;;;;;;10.36;59.06;98888.09;5010172;28;20038;-67
2023/03/10 08:07:16;;;;;;;0.30;0.30;;;;;;;9.44;62.15;98896.38;5010158;28;20065;-68
2023/03/10 08:09:42;;;;;;;0.25;0.25;;;;;;;9.96;60.72;98903.41;5010475;28;20125;-67
2023/03/10 08:12:08;;;;;;;0.30;0.30;;;;;;;9.77;61.32;98903.13;5022778;28;20556;-67
2023/03/10 08:14:33;;;;;;;0.40;0.40;;;;;;;9.06;63.14;98904.84;5030172;28;20025;-66
2023/03/10 08:16:58;;;;;;;0.30;0.30;;;;;;;9.72;61.15;98895.91;5013295;28;20042;-67
2023/03/10 08:19:25;;;;;;;0.30;0.30;;;;;;;9.78;61.60;98899.38;5017660;28;20072;-66
2023/03/10 08:21:54;;;;;;;0.30;0.30;;;;;;;10.02;60.40;98889.75;5023417;28;20083;-67
2023/03/10 08:24:19;;;;;;;0.30;0.30;;;;;;;10.14;60.36;98897.53;5022102;28;20500;-68
2023/03/10 08:26:45;;;;;;;0.30;0.30;;;;;;;9.69;61.34;98888.38;5026471;28;20033;-65
2023/03/10 08:29:10;;;;;;;0.22;0.22;;;;;;;10.02;60.55;98902.34;5023882;28;20434;-68
2023/03/10 08:31:36;;;;;;;0.98;0.50;;;;;;;9.65;62.11;98902.59;5032189;28;20124;-67
2023/03/10 08:34:02;;;;;;;0.28;0.28;;;;;;;9.49;62.20;98903.63;5033389;28;20130;-66
2023/03/10 08:36:29;;;;;;;0.30;0.30;;;;;;;9.91;61.20;98908.75;5033436;28;20057;-66
2023/03/10 08:38:56;;;;;;;0.20;0.20;;;;;;;9.66;61.52;98902.31;5033284;28;20026;-67
2023/03/10 08:41:32;;;;;;;0.30;0.30;;;;;;;9.90;61.20;98907.97;5033631;28;20025;-67
2023/03/10 08:43:58;;;;;;;0.45;0.45;;;;;;;9.87;60.96;98900.44;5033047;28;20092;-67
2023/03/10 08:46:25;;;;;;;0.50;0.50;;;;;;;9.35;63.15;98900.66;5033149;28;20091;-67
2023/03/10 08:48:51;;;;;;;0.32;0.32;;;;;;;10.25;60.41;98905.31;5033018;28;20524;-68
2023/03/10 08:51:18;;;;;;;0.32;0.32;;;;;;;10.43;59.05;98898.56;5033436;28;20033;-67
2023/03/10 08:53:45;;;;;;;0.22;0.22;;;;;;;9.97;61.85;98896.97;5015397;28;20034;-67
2023/03/10 08:56:12;;;;;;;0.50;0.50;;;;;;;10.63;59.64;98893.94;5033667;28;20060;-67
2023/03/10 08:58:38;;;;;;;0.28;0.28;;;;;;;10.36;60.56;98890.78;5032737;28;20513;-68
2023/03/10 09:01:03;;;;;;;0.40;0.40;;;;;;;10.55;59.78;98899.09;5033186;28;20343;-67
2023/03/10 09:03:29;;;;;;;0.30;0.30;;;;;;;10.23;61.13;98901.28;5033363;28;20075;-66
2023/03/10 09:05:54;;;;;;;0.32;0.32;;;;;;;10.49;59.97;98900.19;5033169;28;20029;-67
2023/03/10 09:08:20;;;;;;;0.30;0.30;;;;;;;10.21;61.38;98898.06;5033638;28;20045;-69
2023/03/10 09:10:46;;;;;;;0.50;0.50;;;;;;;10.58;59.73;98904.72;5032521;28;20076;-68
2023/03/10 09:13:11;;;;;;;0.43;0.43;;;;;;;10.72;59.19;98888.84;5032644;28;20045;-68
2023/03/10 09:15:40;;;;;;;0.30;0.30;;;;;;;10.33;60.40;98895.91;5027368;28;20397;-68
2023/03/10 09:18:07;;;;;;;0.43;0.43;;;;;;;10.14;60.81;98890.28;5012954;28;20221;-67
2023/03/10 09:20:33;;;;;;;0.47;0.47;;;;;;;10.23;60.48;98893.22;5013373;28;20371;-68
2023/03/10 09:22:58;;;;;;;0.30;0.30;;;;;;;10.08;60.85;98890.53;5012836;28;20083;-68
2023/03/10 09:25:24;;;;;;;0.40;0.40;;;;;;;10.39;60.57;98895.63;5012683;28;20148;-67
2023/03/10 09:27:49;;;;;;;0.52;0.52;;;;;;;10.67;59.63;98894.25;5028884;28;20061;-67
2023/03/10 09:30:14;;;;;;;0.40;0.40;;;;;;;9.79;61.43;98903.66;5031628;28;20129;-67
2023/03/10 09:32:40;;;;;;;0.30;0.30;;;;;;;10.04;62.09;98906.38;5032907;28;20113;-68
2023/03/10 09:35:06;;;;;;;0.40;0.40;;;;;;;10.01;61.58;98914.94;5032699;28;20033;-66
2023/03/10 09:37:32;;;;;;;0.32;0.32;;;;;;;10.60;59.73;98909.81;5032194;28;20374;-67
2023/03/10 09:39:58;;;;;;;0.30;0.30;;;;;;;10.78;59.28;98913.78;5032194;28;20127;-68
2023/03/10 09:42:34;;;;;;;0.30;0.30;;;;;;;10.67;59.40;98928.34;5032339;28;20039;-67
2023/03/10 09:45:24;;;;;;;0.30;0.30;;;;;;;10.43;61.02;98933.47;5032077;28;20036;-66
2023/03/10 09:48:03;;;;;;;0.30;0.30;;;;;;;10.32;61.47;98942.59;5032107;28;20108;-68
2023/03/10 09:50:37;;;;;;;0.47;0.47;;;;;;;10.22;61.97;98951.47;5032301;28;20063;-68
2023/03/10 09:53:31;;;;;;;0.47;0.47;;;;;;;10.20;60.96;98952.84;5031965;28;20045;-68
2023/03/10 09:55:56;;;;;;;0.40;0.40;;;;;;;9.48;62.81;98945.72;5031948;28;20537;-68
2023/03/10 09:58:32;;;;;;;0.43;0.43;;;;;;;9.57;62.57;98946.81;5031963;28;20120;-67
2023/03/10 10:00:59;;;;;;;0.20;0.20;;;;;;;9.98;62.12;98950.38;5031921;28;20091;-67
2023/03/10 10:03:33;;;;;;;0.40;0.40;;;;;;;9.92;62.71;98954.13;5031751;28;20053;-67
2023/03/10 10:05:59;;;;;;;0.50;0.50;;;;;;;9.45;63.00;98964.22;5031603;28;20129;-67
2023/03/10 10:08:28;;;;;;;0.25;0.25;;;;;;;9.87;61.93;98974.78;5031955;28;20049;-67
2023/03/10 10:10:55;;;;;;;0.40;0.40;;;;;;;9.89;61.10;98965.38;5031683;28;20042;-67
2023/03/10 10:13:24;;;;;;;0.30;0.30;;;;;;;9.97;61.80;98964.03;5031460;28;20461;-68
2023/03/10 10:16:19;;;;;;;0.30;0.30;;;;;;;10.13;61.93;98957.66;5031343;28;20042;-67
2023/03/10 10:19:05;;;;;;;0.32;0.32;;;;;;;9.74;62.81;98965.38;5031319;28;20037;-68
2023/03/10 10:21:41;;;;;;;0.30;0.30;;;;;;;10.18;61.47;98973.78;5031788;28;20033;-67
2023/03/10 10:24:06;;;;;;;0.30;0.30;;;;;;;9.71;62.78;98976.59;5031124;28;20033;-68
2023/03/10 10:26:31;;;;;;;0.30;0.30;;;;;;;10.19;61.83;98975.38;5025350;28;20385;-68
2023/03/10 10:29:10;;;;;;;0.30;0.30;;;;;;;10.67;60.22;98972.13;4993850;28;20034;-67
2023/03/10 10:31:36;;;;;;;0.32;0.32;;;;;;;9.96;62.52;98990.09;5011484;28;20048;-67
2023/03/10 10:34:21;;;;;;;0.45;0.45;;;;;;;9.34;63.87;98986.66;5011593;28;20037;-68
2023/03/10 10:36:54;;;;;;;0.30;0.30;;;;;;;10.33;61.44;98998.75;5011398;28;20037;-67
2023/03/10 10:39:36;;;;;;;0.30;0.30;;;;;;;10.11;62.51;99000.88;5011713;28;20044;-68
2023/03/10 10:42:18;;;;;;;0.28;0.28;;;;;;;10.31;61.91;99006.25;5016512;28;20021;-67
2023/03/10 10:44:45;;;;;;;0.40;0.40;;;;;;;9.90;61.97;99006.44;5031927;28;20087;-67
2023/03/10 10:47:25;;;;;;;0.40;0.40;;;;;;;10.19;62.15;99007.56;5030809;28;20547;-67
2023/03/10 10:49:50;;;;;;;0.20;0.20;;;;;;;9.79;62.15;99015.53;5030662;28;20064;-67
2023/03/10 10:52:22;;;;;;;0.20;0.20;;;;;;;10.13;61.98;99017.50;5030904;28;20037;-66
2023/03/10 10:54:56;;;;;;;0.30;0.30;;;;;;;10.20;61.64;99012.66;5030824;28;20029;-66
2023/03/10 10:57:37;;;;;;;0.40;0.40;;;;;;;10.24;61.78;99011.06;5030972;28;20034;-67
2023/03/10 11:00:33;;;;;;;0.40;0.40;;;;;;;10.42;61.88;99015.09;5031119;28;20037;-67
2023/03/10 11:02:58;;;;;;;0.30;0.30;;;;;;;10.16;62.60;99014.28;5010608;28;20036;-66
2023/03/10 11:05:32;;;;;;;0.43;0.43;;;;;;;10.68;61.03;99007.84;5011336;28;20026;-66
2023/03/10 11:08:27;;;;;;;0.30;0.30;;;;;;;9.81;63.44;99008.03;5010369;28;20058;-66
2023/03/10 11:11:22;;;;;;;0.30;0.30;;;;;;;10.38;62.61;99006.78;4952184;28;20065;-67
2023/03/10 11:13:50;;;;;;;0.40;0.40;;;;;;;10.28;62.63;98995.25;4969150;28;20574;-71
2023/03/10 11:16:21;;;;;;;0.30;0.30;;;;;;;10.55;62.26;98993.88;4979476;28;20038;-67
2023/03/10 11:19:00;;;;;;;0.30;0.30;;;;;;;10.15;62.60;98993.06;4984711;28;20125;-67
2023/03/10 11:21:33;;;;;;;0.22;0.22;;;;;;;10.05;62.54;98987.66;4968927;28;20042;-69
2023/03/10 11:24:19;;;;;;;0.30;0.30;;;;;;;9.71;63.81;98971.22;4968831;28;20190;-67
2023/03/10 11:26:57;;;;;;;0.38;0.38;;;;;;;9.55;64.45;98969.63;4969124;28;20084;-66
2023/03/10 11:29:42;;;;;;;0.43;0.43;;;;;;;9.34;65.32;98966.03;4969180;28;20142;-67
2023/03/10 11:32:07;;;;;;;0.30;0.30;;;;;;;8.99;66.10;98973.94;4967661;28;20170;-66
2023/03/10 11:34:41;;;;;;;0.40;0.40;;;;;;;9.72;63.98;98973.69;4968710;28;20036;-66
2023/03/10 11:37:28;;;;;;;0.30;0.30;;;;;;;10.34;62.75;98986.09;4969043;28;20491;-67
2023/03/10 11:40:06;;;;;;;0.30;0.30;;;;;;;10.07;62.06;98985.53;4968942;28;20043;-66
2023/03/10 11:42:50;;;;;;;0.47;0.47;;;;;;;9.84;61.88;98999.44;4968994;28;20282;-68